Decoded Metar for YPXM (CHRISTMAS ISLAND in CHRISTMAS ISLAND) (IATA:N/A) | Meteo·Mobile Aviation Weather
aviador You're here:

YPXM Decoded Metar

CHRISTMAS ISLAND in CHRISTMAS ISLAND
Report Time2018-08-18 15:30:00
UTC Time2018-08-18 15:45:22
Flight Rules mvfr MVFR
Wind090° at 08 kt
W.Decomp.*RWY 36: 0.1 kt HW 8.0 kt RCW
W.Rank090° ranks 5
Current wind is below 090° avg. (8.3)
Visibility9999 m
Phenomena:N/A
Clouds:Broken 016 Hf
Overcast 024 Hf
Expected CloudBase > 2,400 ft AGL from Temp-Dew spread
Ceiling1,600 ft
Temp22°C (ISA +9)
Dew Point16°C (69% RH)
AAT21.1°C
QNH1014 hPa
Density Alt2,073 ft
Elevation850 ft
Report Wrong Elevation
Raw Report
METAR YPXM 181530Z AUTO 09008KT 9999 // BKN016 OVC024 22/16 Q1014=

Extra information for YPXM:More info

Metar Taf Metar & Taf Last 4 Metars F.Rules Stats Wind Profile Meteogram Temp Stats Airport Information Weather charts Add Link Nearby VenuesMetar ALERT Operation Metar Decoded Social comments